createdAt,value
2019-03-23T00:00:34.875Z,73.43
2019-03-23T00:01:34.892Z,72.81
2019-03-23T00:02:34.858Z,73.22
2019-03-23T00:03:34.858Z,73.16
2019-03-23T00:04:34.849Z,72.09
2019-03-23T00:05:34.837Z,72.64
2019-03-23T00:06:34.839Z,73.47
2019-03-23T00:07:34.815Z,72.95
2019-03-23T00:08:34.814Z,73.26
2019-03-23T00:09:34.784Z,73.16
2019-03-23T00:10:34.780Z,72.44
2019-03-23T00:11:34.772Z,72.85
2019-03-23T00:12:34.760Z,73.05
2019-03-23T00:13:34.763Z,73.36
2019-03-23T00:14:34.731Z,73.16
2019-03-23T00:15:34.709Z,73.09
2019-03-23T00:16:34.702Z,73.47
2019-03-23T00:17:34.716Z,72.78
2019-03-23T00:18:34.683Z,73.36
2019-03-23T00:19:34.677Z,73.05
2019-03-23T00:20:34.662Z,73.16
2019-03-23T00:21:34.662Z,73.39
2019-03-23T00:22:34.656Z,72.99
2019-03-23T00:23:34.622Z,73.26
2019-03-23T00:24:34.618Z,72.74
2019-03-23T00:25:34.605Z,72.78
2019-03-23T00:26:34.596Z,73.29
2019-03-23T00:27:34.601Z,72.99
2019-03-23T00:28:34.571Z,73.39
2019-03-23T00:29:34.557Z,72.88
2019-03-23T00:30:34.546Z,73.50
2019-03-23T00:31:34.541Z,73.60
2019-03-23T00:32:34.546Z,73.50
2019-03-23T00:33:34.527Z,73.50
2019-03-23T00:34:34.511Z,74.02
2019-03-23T00:35:34.493Z,74.26
2019-03-23T00:36:41.419Z,74.15
2019-03-23T00:37:35.513Z,74.36
2019-03-23T00:38:34.476Z,74.26
2019-03-23T00:39:34.448Z,75.39
2019-03-23T00:40:34.446Z,75.29
2019-03-23T00:41:34.459Z,75.09
2019-03-23T00:42:34.463Z,74.57
2019-03-23T00:43:34.426Z,75.39
2019-03-23T00:44:34.398Z,75.39
2019-03-23T00:45:34.389Z,75.09
2019-03-23T00:46:34.381Z,75.22
2019-03-23T00:47:34.382Z,74.29
2019-03-23T00:48:34.422Z,74.98
2019-03-23T00:49:34.343Z,74.98
2019-03-23T00:50:34.330Z,75.29
2019-03-23T00:51:34.325Z,75.39
2019-03-23T00:52:34.321Z,75.29
2019-03-23T00:53:34.322Z,76.12
2019-03-23T00:54:34.283Z,75.91
2019-03-23T00:55:34.281Z,76.32
2019-03-23T00:56:34.269Z,76.43
2019-03-23T00:57:34.257Z,76.32
2019-03-23T00:58:34.274Z,75.60
2019-03-23T00:59:34.226Z,74.77
2019-03-23T01:00:34.232Z,75.84
2019-03-23T01:01:34.224Z,74.98
2019-03-23T01:02:34.197Z,75.09
2019-03-23T01:03:34.204Z,76.36
2019-03-23T01:04:34.174Z,76.26
2019-03-23T01:05:34.160Z,76.56
2019-03-23T01:06:34.161Z,76.77
2019-03-23T01:07:34.142Z,76.91
2019-03-23T01:08:34.157Z,76.29
2019-03-23T01:09:34.151Z,76.60
2019-03-23T01:10:34.117Z,76.91
2019-03-23T01:11:34.103Z,77.01
2019-03-23T01:12:34.087Z,76.91
2019-03-23T01:13:34.088Z,77.01
2019-03-23T01:14:34.118Z,77.01
2019-03-23T01:15:34.057Z,76.60
2019-03-23T01:16:34.042Z,77.43
2019-03-23T01:17:34.053Z,75.98
2019-03-23T01:18:34.054Z,77.94
2019-03-23T01:19:34.008Z,77.43
2019-03-23T01:20:33.996Z,77.26
2019-03-23T01:21:33.992Z,76.91
2019-03-23T01:22:33.971Z,77.05
2019-03-23T01:23:33.976Z,76.12
2019-03-23T01:24:33.986Z,76.01
2019-03-23T01:25:33.978Z,76.74
2019-03-23T01:26:33.934Z,76.64
2019-03-23T01:27:33.930Z,76.22
2019-03-23T01:28:33.938Z,75.91
2019-03-23T01:29:33.957Z,76.91
2019-03-23T01:30:33.894Z,77.05
2019-03-23T01:31:33.873Z,76.50
2019-03-23T01:32:33.858Z,76.43
2019-03-23T01:33:33.873Z,76.95
2019-03-23T01:34:33.872Z,76.32
2019-03-23T01:35:33.831Z,76.01
2019-03-23T01:36:33.825Z,77.01
2019-03-23T01:37:33.833Z,77.01
2019-03-23T01:38:33.796Z,76.50
2019-03-23T01:39:33.805Z,76.29
2019-03-23T01:40:33.783Z,76.95
2019-03-23T01:41:33.774Z,76.95
2019-03-23T01:42:33.750Z,76.84
2019-03-23T01:43:33.746Z,77.05
2019-03-23T01:44:33.748Z,77.05
2019-03-23T01:45:33.739Z,77.05
2019-03-23T01:46:33.704Z,76.84
2019-03-23T01:47:33.699Z,77.15
2019-03-23T01:48:33.681Z,76.64
2019-03-23T01:49:33.690Z,76.98
2019-03-23T01:50:33.682Z,77.09
2019-03-23T01:51:33.649Z,76.78
2019-03-23T01:52:33.664Z,76.67
2019-03-23T01:53:33.630Z,76.67
2019-03-23T01:54:33.635Z,76.67
2019-03-23T01:55:33.626Z,76.98
2019-03-23T01:56:33.634Z,78.12
2019-03-23T01:57:33.581Z,76.98
2019-03-23T01:58:33.571Z,77.50
2019-03-23T01:59:33.561Z,77.39
2019-03-23T02:00:33.604Z,77.39
2019-03-23T02:01:33.545Z,76.36
2019-03-23T02:02:33.527Z,76.88
2019-03-23T02:03:33.519Z,76.05
2019-03-23T02:04:33.555Z,76.98
2019-03-23T02:05:33.517Z,76.50
2019-03-23T02:06:33.489Z,76.98
2019-03-23T02:07:33.472Z,76.78
2019-03-23T02:08:33.465Z,76.46
2019-03-23T02:09:33.462Z,77.74
2019-03-23T02:10:33.463Z,77.19
2019-03-23T02:11:33.444Z,76.57
2019-03-23T02:12:33.417Z,77.01
2019-03-23T02:13:33.407Z,77.01
2019-03-23T02:14:33.401Z,76.40
2019-03-23T02:15:33.406Z,76.61
2019-03-23T02:16:33.404Z,76.61
2019-03-23T02:17:33.360Z,76.91
2019-03-23T02:18:33.351Z,77.33
2019-03-23T02:19:33.349Z,77.47
2019-03-23T02:20:33.328Z,77.22
2019-03-23T02:21:33.336Z,76.61
2019-03-23T02:22:33.305Z,77.43
2019-03-23T02:23:33.330Z,77.67
2019-03-23T02:24:33.285Z,77.95
2019-03-23T02:25:33.279Z,78.19
2019-03-23T02:26:33.289Z,77.67
2019-03-23T02:27:33.260Z,77.64
2019-03-23T02:28:33.252Z,77.15
2019-03-23T02:29:33.227Z,77.15
2019-03-23T02:30:33.220Z,77.78
2019-03-23T02:31:33.232Z,77.57
2019-03-23T02:32:33.202Z,77.67
2019-03-23T02:33:33.187Z,77.98
2019-03-23T02:34:33.178Z,78.09
2019-03-23T02:35:33.166Z,78.09
2019-03-23T02:36:33.184Z,78.40
2019-03-23T02:37:33.145Z,78.23
2019-03-23T02:38:33.129Z,77.61
2019-03-23T02:39:33.118Z,78.02
2019-03-23T02:40:33.138Z,78.33
2019-03-23T02:41:33.100Z,78.85
2019-03-23T02:42:33.115Z,78.96
2019-03-23T02:43:33.078Z,78.85
2019-03-23T02:44:33.065Z,79.16
2019-03-23T02:45:33.049Z,78.78
2019-03-23T02:46:33.055Z,79.41
2019-03-23T02:47:33.055Z,79.41
2019-03-23T02:48:33.105Z,79.51
2019-03-23T02:49:33.006Z,79.71
2019-03-23T02:50:32.995Z,78.89
2019-03-23T02:51:32.987Z,78.78
2019-03-23T02:52:33.050Z,79.20
2019-03-23T02:53:32.967Z,79.41
2019-03-23T02:54:32.973Z,79.41
2019-03-23T02:55:32.938Z,78.78
2019-03-23T02:56:32.933Z,79.30
2019-03-23T02:57:32.941Z,78.99
2019-03-23T02:58:32.908Z,78.99
2019-03-23T02:59:32.894Z,79.41
2019-03-23T03:00:32.940Z,79.10
2019-03-23T03:01:32.875Z,78.99
2019-03-23T03:02:32.886Z,79.85
2019-03-23T03:03:32.856Z,78.92
2019-03-23T03:04:32.880Z,79.24
2019-03-23T03:05:32.829Z,79.65
2019-03-23T03:06:32.827Z,79.61
2019-03-23T03:07:41.870Z,79.65
2019-03-23T03:08:33.799Z,79.41
2019-03-23T03:09:32.790Z,79.85
2019-03-23T03:10:32.793Z,80.06
2019-03-23T03:11:32.768Z,80.06
2019-03-23T03:12:32.770Z,80.21
2019-03-23T03:13:32.791Z,80.52
2019-03-23T03:14:32.740Z,80.52
2019-03-23T03:15:32.740Z,80.00
2019-03-23T03:16:32.711Z,80.00
2019-03-23T03:17:32.736Z,80.00
2019-03-23T03:18:32.708Z,79.79
2019-03-23T03:19:32.698Z,79.48
2019-03-23T03:20:32.676Z,79.79
2019-03-23T03:21:32.671Z,79.69
2019-03-23T03:22:32.652Z,79.79
2019-03-23T03:23:32.675Z,79.69
2019-03-23T03:24:32.632Z,80.21
2019-03-23T03:25:32.626Z,80.31
2019-03-23T03:26:32.606Z,80.31
2019-03-23T03:27:32.593Z,80.00
2019-03-23T03:28:32.611Z,80.31
2019-03-23T03:29:32.586Z,79.90
2019-03-23T03:30:32.568Z,79.48
2019-03-23T03:31:32.556Z,80.16
2019-03-23T03:32:32.549Z,80.31
2019-03-23T03:33:32.597Z,80.62
2019-03-23T03:34:32.527Z,80.31
2019-03-23T03:35:32.519Z,79.69
2019-03-23T03:36:32.502Z,80.00
2019-03-23T03:37:32.486Z,80.41
2019-03-23T03:38:32.551Z,80.31
2019-03-23T03:39:32.480Z,78.96
2019-03-23T03:40:32.466Z,79.69
2019-03-23T03:41:32.451Z,79.69
2019-03-23T03:42:32.449Z,80.21
2019-03-23T03:43:32.442Z,80.45
2019-03-23T03:44:32.418Z,80.66
2019-03-23T03:45:32.432Z,80.97
2019-03-23T03:46:32.388Z,81.49
2019-03-23T03:47:32.382Z,81.38
2019-03-23T03:48:32.392Z,81.63
2019-03-23T03:49:32.381Z,81.49
2019-03-23T03:50:32.351Z,81.52
2019-03-23T03:51:32.351Z,81.28
2019-03-23T03:52:32.329Z,81.18
2019-03-23T03:53:32.315Z,81.38
2019-03-23T03:54:32.321Z,81.73
2019-03-23T03:55:32.294Z,81.11
2019-03-23T03:56:32.350Z,81.01
2019-03-23T03:57:32.282Z,81.11
2019-03-23T03:58:32.266Z,81.18
2019-03-23T03:59:32.280Z,81.28
2019-03-23T04:00:32.242Z,81.59
2019-03-23T04:01:32.231Z,81.18
2019-03-23T04:02:32.219Z,80.87
2019-03-23T04:03:32.209Z,80.97
2019-03-23T04:04:32.216Z,81.32
2019-03-23T04:05:32.185Z,80.66
2019-03-23T04:06:32.177Z,80.49
2019-03-23T04:07:32.211Z,80.66
2019-03-23T04:08:32.160Z,80.66
2019-03-23T04:09:32.175Z,81.49
2019-03-23T04:10:32.138Z,81.42
2019-03-23T04:11:32.129Z,81.21
2019-03-23T04:12:32.123Z,81.42
2019-03-23T04:13:32.113Z,81.84
2019-03-23T04:14:32.164Z,81.73
2019-03-23T04:15:32.105Z,82.15
2019-03-23T04:16:32.065Z,81.94
2019-03-23T04:17:32.065Z,81.94
2019-03-23T04:18:32.056Z,81.84
2019-03-23T04:19:32.030Z,82.04
2019-03-23T04:20:32.046Z,81.63
2019-03-23T04:21:32.014Z,81.21
2019-03-23T04:22:31.998Z,80.90
2019-03-23T04:23:31.985Z,81.21
2019-03-23T04:24:31.978Z,81.42
2019-03-23T04:25:31.986Z,80.69
2019-03-23T04:26:31.967Z,80.38
2019-03-23T04:27:31.945Z,81.01
2019-03-23T04:28:31.939Z,81.21
2019-03-23T04:29:31.922Z,81.11
2019-03-23T04:30:31.928Z,80.80
2019-03-23T04:31:31.903Z,80.59
2019-03-23T04:32:31.894Z,80.80
2019-03-23T04:33:31.877Z,80.07
2019-03-23T04:34:31.869Z,80.49
2019-03-23T04:35:31.883Z,80.28
2019-03-23T04:36:31.914Z,80.59
2019-03-23T04:37:31.834Z,80.80
2019-03-23T04:38:31.828Z,81.01
2019-03-23T04:39:31.811Z,80.18
2019-03-23T04:40:31.831Z,80.80
2019-03-23T04:41:31.789Z,80.69
2019-03-23T04:42:31.783Z,80.59
2019-03-23T04:43:31.769Z,80.59
2019-03-23T04:44:31.774Z,80.80
2019-03-23T04:45:31.763Z,80.28
2019-03-23T04:46:31.733Z,80.49
2019-03-23T04:47:31.728Z,80.66
2019-03-23T04:48:31.712Z,80.69
2019-03-23T04:49:31.701Z,80.59
2019-03-23T04:50:31.731Z,80.59
2019-03-23T04:51:31.679Z,80.69
2019-03-23T04:52:31.669Z,80.18
2019-03-23T04:53:31.659Z,80.49
2019-03-23T04:54:31.655Z,80.28
2019-03-23T04:55:31.650Z,79.76
2019-03-23T04:56:31.640Z,80.28
2019-03-23T04:57:31.615Z,80.28
2019-03-23T04:58:31.616Z,81.01
2019-03-23T04:59:31.595Z,81.21
2019-03-23T05:00:31.609Z,81.11
2019-03-23T05:01:31.592Z,80.59
2019-03-23T05:02:31.570Z,80.83
2019-03-23T05:03:31.549Z,80.83
2019-03-23T05:04:31.544Z,80.80
2019-03-23T05:05:31.528Z,80.52
2019-03-23T05:06:31.542Z,81.04
2019-03-23T05:07:31.505Z,81.25
2019-03-23T05:08:33.649Z,81.70
2019-03-23T05:09:31.483Z,81.77
2019-03-23T05:10:31.476Z,81.18
2019-03-23T05:11:31.491Z,81.08
2019-03-23T05:12:31.469Z,81.25
2019-03-23T05:13:31.469Z,81.39
2019-03-23T05:14:31.450Z,81.35
2019-03-23T05:15:31.460Z,81.60
2019-03-23T05:16:31.428Z,81.60
2019-03-23T05:17:31.402Z,81.60
2019-03-23T05:18:31.397Z,81.70
2019-03-23T05:19:31.392Z,82.01
2019-03-23T05:20:31.368Z,82.01
2019-03-23T05:21:31.371Z,82.22
2019-03-23T05:22:31.365Z,81.91
2019-03-23T05:23:31.340Z,82.15
2019-03-23T05:24:31.333Z,81.81
2019-03-23T05:25:31.315Z,82.26
2019-03-23T05:26:31.319Z,81.84
2019-03-23T05:27:31.352Z,81.32
2019-03-23T05:28:31.281Z,81.53
2019-03-23T05:29:31.265Z,81.39
2019-03-23T05:30:31.259Z,81.70
2019-03-23T05:31:31.286Z,81.70
2019-03-23T05:32:31.254Z,81.39
2019-03-23T05:33:31.222Z,81.18
2019-03-23T05:34:31.241Z,80.87
2019-03-23T05:35:31.206Z,81.18
2019-03-23T05:36:31.193Z,81.18
2019-03-23T05:37:31.223Z,81.39
2019-03-23T05:38:31.177Z,81.29
2019-03-23T05:39:31.161Z,81.29
2019-03-23T05:40:31.148Z,81.70
2019-03-23T05:41:31.148Z,81.18
2019-03-23T05:42:31.130Z,81.39
2019-03-23T05:43:31.136Z,81.39
2019-03-23T05:44:31.105Z,81.29
2019-03-23T05:45:31.093Z,81.18
2019-03-23T05:46:31.080Z,81.29
2019-03-23T05:47:31.114Z,81.70
2019-03-23T05:48:31.099Z,81.29
2019-03-23T05:49:31.047Z,81.25
2019-03-23T05:50:31.042Z,81.08
2019-03-23T05:51:31.029Z,81.60
2019-03-23T05:52:31.075Z,81.35
2019-03-23T05:53:31.029Z,81.25
2019-03-23T05:54:30.993Z,81.25
2019-03-23T05:55:30.989Z,81.35
2019-03-23T05:56:30.990Z,80.73
2019-03-23T05:57:30.962Z,80.80
2019-03-23T05:58:30.976Z,80.69
2019-03-23T05:59:30.948Z,80.90
2019-03-23T06:00:30.932Z,81.01
2019-03-23T06:01:30.924Z,80.97
2019-03-23T06:02:30.904Z,80.90
2019-03-23T06:03:30.910Z,80.55
2019-03-23T06:04:30.883Z,80.14
2019-03-23T06:05:30.905Z,80.35
2019-03-23T06:06:30.862Z,80.14
2019-03-23T06:07:30.852Z,80.04
2019-03-23T06:08:30.864Z,79.48
2019-03-23T06:09:30.833Z,79.83
2019-03-23T06:10:30.819Z,80.52
2019-03-23T06:11:30.820Z,79.79
2019-03-23T06:12:30.795Z,80.06
2019-03-23T06:13:30.804Z,79.75
2019-03-23T06:14:30.776Z,79.24
2019-03-23T06:15:30.775Z,78.51
2019-03-23T06:16:30.756Z,78.61
2019-03-23T06:17:30.751Z,78.82
2019-03-23T06:18:30.747Z,79.03
2019-03-23T06:19:30.745Z,79.30
2019-03-23T06:20:30.711Z,78.89
2019-03-23T06:21:30.699Z,78.47
2019-03-23T06:22:30.705Z,79.06
2019-03-23T06:23:30.688Z,79.27
2019-03-23T06:24:30.716Z,79.02
2019-03-23T06:25:30.658Z,78.40
2019-03-23T06:26:30.648Z,79.02
2019-03-23T06:27:30.638Z,79.74
2019-03-23T06:28:30.626Z,79.54
2019-03-23T06:29:30.637Z,78.57
2019-03-23T06:30:30.615Z,78.99
2019-03-23T06:31:30.597Z,78.88
2019-03-23T06:32:30.612Z,78.99
2019-03-23T06:33:30.587Z,78.74
2019-03-23T06:34:30.583Z,78.47
2019-03-23T06:35:30.553Z,78.57
2019-03-23T06:36:30.545Z,78.33
2019-03-23T06:37:30.533Z,79.47
2019-03-23T06:38:30.513Z,79.12
2019-03-23T06:39:30.532Z,79.22
2019-03-23T06:40:30.494Z,79.22
2019-03-23T06:41:30.480Z,78.77
2019-03-23T06:42:30.471Z,78.46
2019-03-23T06:43:30.476Z,77.74
2019-03-23T06:44:32.437Z,77.64
2019-03-23T06:45:30.452Z,77.64
2019-03-23T06:46:30.426Z,78.22
2019-03-23T06:47:30.422Z,78.01
2019-03-23T06:48:30.405Z,77.91
2019-03-23T06:49:30.392Z,77.46
2019-03-23T06:50:30.416Z,78.28
2019-03-23T06:51:30.370Z,77.22
2019-03-23T06:52:30.363Z,77.53
2019-03-23T06:53:30.349Z,76.50
2019-03-23T06:54:30.339Z,76.25
2019-03-23T06:55:30.350Z,76.04
2019-03-23T06:56:30.312Z,76.01
2019-03-23T06:57:30.315Z,76.73
2019-03-23T06:58:30.351Z,75.05
2019-03-23T06:59:30.288Z,75.26
2019-03-23T07:00:30.293Z,74.95
2019-03-23T07:01:30.270Z,75.22
2019-03-23T07:02:30.247Z,73.78
2019-03-23T07:03:30.245Z,75.08
2019-03-23T07:04:30.228Z,73.64
2019-03-23T07:05:30.236Z,72.92
2019-03-23T07:06:30.204Z,74.22
2019-03-23T07:07:30.198Z,73.30
2019-03-23T07:08:32.233Z,73.26
2019-03-23T07:09:30.171Z,72.13
2019-03-23T07:10:30.198Z,72.24
2019-03-23T07:11:30.148Z,72.09
2019-03-23T07:12:30.142Z,72.00
2019-03-23T07:13:30.126Z,72.20
2019-03-23T07:14:30.125Z,70.94
2019-03-23T07:15:30.105Z,70.83
2019-03-23T07:16:30.143Z,69.90
2019-03-23T07:17:30.083Z,70.52
2019-03-23T07:18:30.077Z,69.26
2019-03-23T07:19:30.065Z,68.02
2019-03-23T07:20:30.059Z,67.79
2019-03-23T07:21:30.064Z,67.89
2019-03-23T07:22:30.028Z,67.44
2019-03-23T07:23:30.021Z,67.35
2019-03-23T07:24:30.008Z,66.73
2019-03-23T07:25:29.996Z,66.70
2019-03-23T07:26:30.008Z,66.39
2019-03-23T07:27:29.973Z,66.16
2019-03-23T07:28:29.963Z,64.82
2019-03-23T07:29:29.962Z,65.84
2019-03-23T07:30:29.941Z,64.51
2019-03-23T07:31:29.952Z,64.51
2019-03-23T07:32:29.920Z,65.03
2019-03-23T07:33:29.914Z,64.31
2019-03-23T07:34:29.920Z,64.31
2019-03-23T07:35:29.889Z,64.89
2019-03-23T07:36:29.897Z,65.10
2019-03-23T07:37:29.867Z,62.54
2019-03-23T07:38:29.859Z,62.54
2019-03-23T07:39:30.620Z,62.92
2019-03-23T07:40:29.830Z,62.58
2019-03-23T07:41:29.862Z,62.99
2019-03-23T07:42:29.806Z,63.09
2019-03-23T07:43:29.798Z,61.11
2019-03-23T07:44:29.794Z,61.11
2019-03-23T07:45:29.784Z,61.50
2019-03-23T07:46:29.790Z,61.40
2019-03-23T07:47:29.796Z,60.37
2019-03-23T07:48:29.746Z,61.29
2019-03-23T07:49:29.783Z,61.91
2019-03-23T07:50:29.717Z,62.49
2019-03-23T07:51:29.714Z,61.26
2019-03-23T07:52:29.727Z,61.06
2019-03-23T07:53:29.692Z,60.75
2019-03-23T07:54:29.679Z,59.30
2019-03-23T07:55:29.666Z,60.52
2019-03-23T07:56:29.666Z,61.44
2019-03-23T07:57:29.672Z,60.52
2019-03-23T07:58:29.636Z,59.27
2019-03-23T07:59:29.623Z,59.78
2019-03-23T08:00:29.615Z,59.78
2019-03-23T08:01:29.599Z,58.62
2019-03-23T08:02:29.589Z,59.03
2019-03-23T08:03:29.609Z,59.00
2019-03-23T08:04:29.572Z,59.92
2019-03-23T08:05:29.557Z,59.21
2019-03-23T08:06:29.562Z,59.49
2019-03-23T08:07:29.576Z,57.65
2019-03-23T08:08:29.526Z,55.61
2019-03-23T08:09:37.421Z,56.23
2019-03-23T08:10:30.503Z,56.91
2019-03-23T08:11:29.508Z,54.67
2019-03-23T08:12:29.498Z,55.28
2019-03-23T08:13:29.572Z,55.69
2019-03-23T08:14:29.457Z,56.07
2019-03-23T08:15:29.444Z,56.99
2019-03-23T08:16:29.437Z,57.19
2019-03-23T08:17:29.446Z,56.27
2019-03-23T08:18:29.446Z,55.97
2019-03-23T08:19:29.404Z,54.85
2019-03-23T08:20:29.389Z,55.76
2019-03-23T08:21:29.389Z,55.84
2019-03-23T08:22:29.372Z,55.15
2019-03-23T08:23:29.377Z,56.07
2019-03-23T08:24:29.350Z,56.27
2019-03-23T08:25:29.335Z,57.37
2019-03-23T08:26:29.328Z,57.60
2019-03-23T08:27:29.315Z,55.22
2019-03-23T08:28:29.315Z,56.96
2019-03-23T08:29:29.291Z,57.47
2019-03-23T08:30:29.282Z,56.32
2019-03-23T08:31:29.284Z,57.01
2019-03-23T08:32:29.261Z,55.18
2019-03-23T08:33:29.260Z,53.75
2019-03-23T08:34:29.235Z,53.96
2019-03-23T08:35:29.232Z,53.32
2019-03-23T08:36:29.209Z,54.13
2019-03-23T08:37:29.198Z,54.74
2019-03-23T08:38:29.233Z,54.54
2019-03-23T08:39:29.205Z,55.05
2019-03-23T08:40:29.168Z,56.14
2019-03-23T08:41:29.157Z,54.61
2019-03-23T08:42:29.145Z,54.92
2019-03-23T08:43:29.134Z,54.49
2019-03-23T08:44:31.504Z,54.59
2019-03-23T08:45:29.113Z,51.84
2019-03-23T08:46:29.117Z,52.63
2019-03-23T08:47:29.095Z,53.14
2019-03-23T08:48:29.092Z,54.46
2019-03-23T08:49:29.092Z,52.20
2019-03-23T08:50:29.061Z,51.18
2019-03-23T08:51:29.055Z,50.98
2019-03-23T08:52:29.105Z,49.58
2019-03-23T08:53:29.021Z,49.76
2019-03-23T08:54:29.046Z,49.56
2019-03-23T08:55:29.051Z,50.48
2019-03-23T08:56:29.007Z,52.71
2019-03-23T08:57:28.990Z,50.96
2019-03-23T08:58:28.984Z,52.71
2019-03-23T08:59:29.003Z,51.77
2019-03-23T09:00:28.992Z,51.09
2019-03-23T09:01:28.936Z,50.68
2019-03-23T09:02:28.926Z,51.29
2019-03-23T09:03:28.914Z,52.10
2019-03-23T09:04:28.911Z,52.79
2019-03-23T09:05:28.936Z,52.99
2019-03-23T09:06:28.887Z,51.95
2019-03-23T09:07:28.877Z,50.73
2019-03-23T09:08:28.902Z,50.84
2019-03-23T09:09:28.853Z,52.03
2019-03-23T09:10:28.853Z,52.20
2019-03-23T09:11:28.828Z,50.66
2019-03-23T09:12:28.854Z,48.13
2019-03-23T09:13:28.809Z,49.65
2019-03-23T09:14:28.793Z,49.22
2019-03-23T09:15:28.803Z,48.54
2019-03-23T09:16:28.786Z,48.41
2019-03-23T09:17:28.759Z,49.02
2019-03-23T09:18:28.756Z,47.82
2019-03-23T09:19:28.761Z,48.21
2019-03-23T09:20:29.699Z,47.72
2019-03-23T09:21:28.728Z,46.61
2019-03-23T09:22:28.710Z,49.34
2019-03-23T09:23:28.695Z,48.13
2019-03-23T09:24:28.694Z,49.14
2019-03-23T09:25:28.688Z,48.33
2019-03-23T09:26:28.664Z,49.85
2019-03-23T09:27:28.648Z,50.13
2019-03-23T09:28:28.649Z,47.70
2019-03-23T09:29:28.635Z,49.50
2019-03-23T09:30:28.647Z,47.47
2019-03-23T09:31:28.632Z,47.35
2019-03-23T09:32:28.599Z,47.75
2019-03-23T09:33:28.594Z,46.52
2019-03-23T09:34:28.589Z,48.03
2019-03-23T09:35:28.566Z,46.01
2019-03-23T09:36:28.578Z,46.09
2019-03-23T09:37:28.540Z,46.09
2019-03-23T09:38:28.535Z,47.61
2019-03-23T09:39:28.526Z,47.08
2019-03-23T09:40:28.504Z,44.76
2019-03-23T09:41:28.535Z,44.78
2019-03-23T09:42:28.491Z,44.58
2019-03-23T09:43:28.486Z,46.40
2019-03-23T09:44:28.461Z,44.88
2019-03-23T09:45:28.454Z,45.31
2019-03-23T09:46:28.470Z,44.80
2019-03-23T09:47:28.433Z,44.29
2019-03-23T09:48:28.427Z,46.32
2019-03-23T09:49:28.420Z,47.81
2019-03-23T09:50:28.397Z,47.61
2019-03-23T09:51:29.376Z,47.00
2019-03-23T09:52:28.413Z,46.48
2019-03-23T09:53:28.373Z,44.76
2019-03-23T09:54:28.357Z,45.37
2019-03-23T09:55:28.778Z,46.76
2019-03-23T09:56:28.329Z,44.03
2019-03-23T09:57:28.336Z,46.15
2019-03-23T09:58:28.316Z,44.43
2019-03-23T09:59:28.300Z,46.56
2019-03-23T10:00:28.342Z,45.95
2019-03-23T10:01:28.276Z,44.64
2019-03-23T10:02:28.283Z,43.83
2019-03-23T10:03:28.251Z,46.45
2019-03-23T10:04:28.247Z,45.93
2019-03-23T10:05:28.236Z,45.12
2019-03-23T10:06:28.229Z,44.01
2019-03-23T10:07:28.241Z,46.03
2019-03-23T10:08:28.202Z,45.73
2019-03-23T10:09:28.190Z,44.59
2019-03-23T10:10:28.214Z,44.59
2019-03-23T10:11:28.164Z,44.57
2019-03-23T10:12:28.178Z,44.57
2019-03-23T10:13:28.148Z,43.26
2019-03-23T10:14:28.148Z,42.46
2019-03-23T10:15:28.143Z,43.66
2019-03-23T10:16:28.117Z,43.87
2019-03-23T10:17:28.098Z,43.16
2019-03-23T10:18:28.128Z,42.66
2019-03-23T10:19:28.076Z,43.26
2019-03-23T10:20:28.080Z,42.66
2019-03-23T10:21:28.061Z,44.35
2019-03-23T10:22:28.061Z,43.44
2019-03-23T10:23:28.048Z,44.65
2019-03-23T10:24:28.062Z,43.24
2019-03-23T10:25:28.017Z,44.15
2019-03-23T10:26:28.001Z,43.93
2019-03-23T10:27:28.001Z,43.02
2019-03-23T10:28:28.023Z,42.19
2019-03-23T10:29:27.965Z,42.38
2019-03-23T10:30:27.973Z,42.98
2019-03-23T10:31:27.950Z,43.08
2019-03-23T10:32:27.931Z,42.07
2019-03-23T10:33:28.003Z,40.14
2019-03-23T10:34:27.948Z,43.87
2019-03-23T10:35:27.900Z,42.25
2019-03-23T10:36:27.895Z,40.34
2019-03-23T10:37:27.883Z,42.76
2019-03-23T10:38:28.061Z,41.25
2019-03-23T10:39:27.876Z,42.25
2019-03-23T10:40:32.341Z,41.93
2019-03-23T10:41:28.835Z,42.44
2019-03-23T10:42:27.822Z,41.03
2019-03-23T10:43:27.846Z,40.62
2019-03-23T10:44:27.824Z,41.73
2019-03-23T10:45:27.790Z,41.93
2019-03-23T10:46:27.806Z,40.12
2019-03-23T10:47:27.845Z,41.23
2019-03-23T10:48:27.791Z,39.12
2019-03-23T10:49:27.774Z,41.11
2019-03-23T10:50:27.737Z,41.71
2019-03-23T10:51:27.728Z,41.41
2019-03-23T10:52:27.713Z,39.58
2019-03-23T10:53:27.704Z,42.10
2019-03-23T10:54:27.721Z,39.38
2019-03-23T10:55:27.694Z,38.38
2019-03-23T10:56:27.672Z,39.88
2019-03-23T10:57:27.673Z,39.60
2019-03-23T10:58:27.645Z,39.50
2019-03-23T10:59:28.090Z,39.70
2019-03-23T11:00:27.630Z,41.31
2019-03-23T11:01:27.622Z,39.38
2019-03-23T11:02:27.615Z,40.19
2019-03-23T11:03:27.589Z,40.59
2019-03-23T11:04:27.594Z,41.39
2019-03-23T11:05:27.568Z,41.39
2019-03-23T11:06:27.559Z,39.86
2019-03-23T11:07:27.561Z,42.68
2019-03-23T11:08:27.534Z,39.64
2019-03-23T11:09:27.548Z,38.74
2019-03-23T11:10:27.526Z,39.54
2019-03-23T11:11:27.504Z,38.74
2019-03-23T11:12:27.490Z,39.62
2019-03-23T11:13:27.492Z,39.53
2019-03-23T11:14:27.489Z,40.63
2019-03-23T11:15:27.469Z,39.42
2019-03-23T11:16:27.453Z,37.32
2019-03-23T11:17:27.447Z,37.94
2019-03-23T11:18:27.424Z,38.84
2019-03-23T11:19:27.435Z,39.45
2019-03-23T11:20:27.407Z,39.14
2019-03-23T11:21:27.394Z,41.35
2019-03-23T11:22:27.393Z,39.84
2019-03-23T11:23:27.390Z,42.24
2019-03-23T11:24:27.380Z,40.13
2019-03-23T11:25:27.368Z,39.23
2019-03-23T11:26:28.201Z,40.43
2019-03-23T11:27:27.337Z,39.62
2019-03-23T11:28:27.336Z,40.13
2019-03-23T11:29:27.318Z,41.23
2019-03-23T11:30:27.317Z,39.11
2019-03-23T11:31:27.319Z,38.12
2019-03-23T11:32:27.270Z,39.51
2019-03-23T11:33:27.257Z,41.23
2019-03-23T11:34:27.271Z,41.01
2019-03-23T11:35:27.254Z,39.51
2019-03-23T11:36:27.227Z,39.11
2019-03-23T11:37:27.331Z,41.31
2019-03-23T11:38:27.215Z,41.79
2019-03-23T11:39:27.210Z,39.45
2019-03-23T11:40:27.204Z,39.15
2019-03-23T11:41:27.190Z,38.95
2019-03-23T11:42:27.172Z,36.93
2019-03-23T11:43:27.158Z,36.83
2019-03-23T11:44:27.149Z,35.13
2019-03-23T11:45:27.180Z,37.75
2019-03-23T11:46:27.141Z,37.15
2019-03-23T11:47:27.126Z,36.96
2019-03-23T11:48:27.095Z,39.67
2019-03-23T11:49:27.092Z,38.77
2019-03-23T11:50:27.095Z,36.96
2019-03-23T11:51:27.075Z,38.07
2019-03-23T11:52:27.104Z,38.77
2019-03-23T11:53:27.063Z,38.57
2019-03-23T11:54:27.058Z,40.37
2019-03-23T11:55:27.048Z,40.97
2019-03-23T11:56:30.420Z,38.25
2019-03-23T11:57:27.029Z,39.45
2019-03-23T11:58:26.997Z,39.35
2019-03-23T11:59:26.980Z,36.83
2019-03-23T12:00:26.984Z,36.93
2019-03-23T12:01:27.024Z,35.83
2019-03-23T12:02:26.966Z,37.03
2019-03-23T12:03:26.942Z,38.03
2019-03-23T12:04:26.931Z,39.43
2019-03-23T12:05:26.921Z,38.43
2019-03-23T12:06:26.935Z,37.43
2019-03-23T12:07:26.888Z,36.83
2019-03-23T12:08:26.880Z,36.73
2019-03-23T12:09:26.868Z,36.53
2019-03-23T12:10:26.863Z,37.03
2019-03-23T12:11:26.865Z,37.53
2019-03-23T12:12:26.852Z,38.23
2019-03-23T12:13:26.833Z,37.61
2019-03-23T12:14:26.815Z,39.22
2019-03-23T12:15:26.805Z,36.11
2019-03-23T12:16:26.819Z,37.11
2019-03-23T12:17:26.787Z,36.41
2019-03-23T12:18:26.775Z,37.11
2019-03-23T12:19:26.760Z,39.39
2019-03-23T12:20:26.775Z,37.21
2019-03-23T12:21:26.772Z,36.49
2019-03-23T12:22:26.728Z,35.60
2019-03-23T12:23:26.715Z,38.09
2019-03-23T12:24:26.728Z,37.92
2019-03-23T12:25:26.706Z,37.01
2019-03-23T12:26:26.704Z,38.89
2019-03-23T12:27:26.682Z,37.51
2019-03-23T12:28:26.710Z,37.19
2019-03-23T12:29:26.664Z,36.79
2019-03-23T12:30:26.642Z,35.39
2019-03-23T12:31:26.632Z,36.69
2019-03-23T12:32:26.651Z,35.99
2019-03-23T12:33:26.664Z,36.51
2019-03-23T12:34:26.605Z,38.89
2019-03-23T12:35:26.606Z,39.20
2019-03-23T12:36:26.574Z,37.10
2019-03-23T12:37:26.576Z,37.98
2019-03-23T12:38:26.585Z,37.98
2019-03-23T12:39:26.566Z,35.78
2019-03-23T12:40:26.554Z,35.28
2019-03-23T12:41:26.553Z,36.47
2019-03-23T12:42:26.508Z,36.79
2019-03-23T12:43:26.512Z,36.10
2019-03-23T12:44:26.507Z,38.40
2019-03-23T12:45:26.478Z,36.91
2019-03-23T12:46:26.465Z,38.61
2019-03-23T12:47:26.461Z,38.81
2019-03-23T12:48:26.471Z,36.71
2019-03-23T12:49:26.446Z,37.92
2019-03-23T12:50:26.432Z,37.13
2019-03-23T12:51:26.430Z,38.71
2019-03-23T12:52:26.421Z,36.91